createdAt,value
2023-01-11T00:00:22.646Z,8.21
2023-01-11T00:01:51.873Z,8.21
2023-01-11T00:02:22.727Z,8.18
2023-01-11T00:03:22.648Z,8.20
2023-01-11T00:04:22.721Z,8.15
2023-01-11T00:05:22.576Z,8.21
2023-01-11T00:06:22.640Z,8.26
2023-01-11T00:07:22.734Z,8.28
2023-01-11T00:08:22.546Z,8.30
2023-01-11T00:09:22.553Z,8.32
2023-01-11T00:10:22.539Z,8.29
2023-01-11T00:11:22.505Z,8.32
2023-01-11T00:12:22.500Z,8.28
2023-01-11T00:13:22.463Z,8.26
2023-01-11T00:14:22.512Z,8.28
2023-01-11T00:15:22.475Z,8.28
2023-01-11T00:16:22.529Z,8.29
2023-01-11T00:17:22.427Z,8.35
2023-01-11T00:18:22.582Z,8.39
2023-01-11T00:19:22.396Z,8.32
2023-01-11T00:20:22.553Z,8.29
2023-01-11T00:21:22.465Z,8.32
2023-01-11T00:22:22.362Z,8.32
2023-01-11T00:23:22.345Z,8.37
2023-01-11T00:24:22.361Z,8.40
2023-01-11T00:25:22.312Z,8.40
2023-01-11T00:26:22.287Z,8.42
2023-01-11T00:27:22.407Z,8.45
2023-01-11T00:28:22.291Z,8.39
2023-01-11T00:29:22.271Z,8.33
2023-01-11T00:30:22.289Z,8.36
2023-01-11T00:31:22.334Z,8.40
2023-01-11T00:32:22.228Z,8.39
2023-01-11T00:33:22.268Z,8.44
2023-01-11T00:34:22.220Z,8.42
2023-01-11T00:35:22.197Z,8.42
2023-01-11T00:36:22.314Z,8.42
2023-01-11T00:37:22.206Z,8.53
2023-01-11T00:38:22.132Z,8.57
2023-01-11T00:39:22.176Z,8.60
2023-01-11T00:40:22.119Z,8.65
2023-01-11T00:41:22.129Z,8.68
2023-01-11T00:42:22.102Z,8.66
2023-01-11T00:43:22.230Z,8.60
2023-01-11T00:44:22.078Z,8.58
2023-01-11T00:45:22.092Z,8.55
2023-01-11T00:46:22.138Z,8.55
2023-01-11T00:47:22.017Z,8.57
2023-01-11T00:48:22.071Z,8.58
2023-01-11T00:49:22.036Z,8.57
2023-01-11T00:50:22.046Z,8.57
2023-01-11T00:51:22.118Z,8.53
2023-01-11T00:52:21.985Z,8.47
2023-01-11T00:53:21.975Z,8.51
2023-01-11T00:54:22.084Z,8.55
2023-01-11T00:55:21.939Z,8.55
2023-01-11T00:56:21.912Z,8.51
2023-01-11T00:57:21.910Z,8.54
2023-01-11T00:58:21.859Z,8.50
2023-01-11T00:59:21.877Z,8.55
2023-01-11T01:00:21.887Z,8.50
2023-01-11T01:01:21.943Z,8.55
2023-01-11T01:02:21.878Z,8.54
2023-01-11T01:03:21.816Z,8.54
2023-01-11T01:04:21.995Z,8.57
2023-01-11T01:05:21.794Z,8.53
2023-01-11T01:06:21.802Z,8.55
2023-01-11T01:07:21.836Z,8.60
2023-01-11T01:08:21.755Z,8.65
2023-01-11T01:09:21.726Z,8.65
2023-01-11T01:10:21.744Z,8.69
2023-01-11T01:11:21.707Z,8.73
2023-01-11T01:12:21.716Z,8.75
2023-01-11T01:13:21.708Z,8.71
2023-01-11T01:14:21.773Z,8.73
2023-01-11T01:15:21.696Z,8.75
2023-01-11T01:16:21.711Z,8.68
2023-01-11T01:17:21.652Z,8.68
2023-01-11T01:18:21.638Z,8.75
2023-01-11T01:19:21.590Z,8.79
2023-01-11T01:20:21.588Z,8.73
2023-01-11T01:21:21.759Z,8.71
2023-01-11T01:22:21.581Z,8.68
2023-01-11T01:23:21.548Z,8.71
2023-01-11T01:24:21.594Z,8.75
2023-01-11T01:25:21.506Z,8.79
2023-01-11T01:26:21.491Z,8.83
2023-01-11T01:27:21.563Z,8.86
2023-01-11T01:28:21.467Z,8.91
2023-01-11T01:29:21.468Z,8.93
2023-01-11T01:30:21.579Z,8.88
2023-01-11T01:31:21.539Z,8.84
2023-01-11T01:32:21.430Z,8.86
2023-01-11T01:33:21.549Z,8.83
2023-01-11T01:34:21.407Z,8.86
2023-01-11T01:35:21.366Z,8.88
2023-01-11T01:36:21.364Z,8.90
2023-01-11T01:37:21.431Z,8.91
2023-01-11T01:38:21.355Z,8.90
2023-01-11T01:39:21.391Z,8.93
2023-01-11T01:40:21.460Z,8.96
2023-01-11T01:41:21.300Z,8.94
2023-01-11T01:42:21.313Z,9.02
2023-01-11T01:43:21.316Z,9.06
2023-01-11T01:44:21.335Z,9.04
2023-01-11T01:45:21.254Z,9.09
2023-01-11T01:46:21.321Z,9.09
2023-01-11T01:47:21.254Z,9.10
2023-01-11T01:48:21.195Z,9.12
2023-01-11T01:49:21.239Z,9.21
2023-01-11T01:50:21.272Z,9.18
2023-01-11T01:51:21.178Z,9.18
2023-01-11T01:52:21.168Z,9.18
2023-01-11T01:53:21.189Z,9.20
2023-01-11T01:54:21.120Z,9.23
2023-01-11T01:55:21.152Z,9.28
2023-01-11T01:56:21.170Z,9.27
2023-01-11T01:57:21.099Z,9.28
2023-01-11T01:58:21.063Z,9.27
2023-01-11T01:59:21.066Z,9.30
2023-01-11T02:00:21.041Z,9.34
2023-01-11T02:01:21.129Z,9.43
2023-01-11T02:02:21.122Z,9.46
2023-01-11T02:03:21.106Z,9.50
2023-01-11T02:04:21.008Z,9.53
2023-01-11T02:05:20.972Z,9.49
2023-01-11T02:06:20.981Z,9.53
2023-01-11T02:07:20.962Z,9.57
2023-01-11T02:08:20.957Z,9.61
2023-01-11T02:09:20.942Z,9.60
2023-01-11T02:10:20.901Z,9.60
2023-01-11T02:11:20.896Z,9.58
2023-01-11T02:12:20.933Z,9.61
2023-01-11T02:13:20.930Z,9.64
2023-01-11T02:14:20.900Z,9.66
2023-01-11T02:15:20.913Z,9.64
2023-01-11T02:16:20.856Z,9.67
2023-01-11T02:17:20.854Z,9.67
2023-01-11T02:18:20.826Z,9.67
2023-01-11T02:19:20.824Z,9.75
2023-01-11T02:20:20.804Z,9.78
2023-01-11T02:21:20.753Z,9.81
2023-01-11T02:22:20.760Z,9.81
2023-01-11T02:23:20.756Z,9.82
2023-01-11T02:24:20.714Z,9.82
2023-01-11T02:25:20.795Z,9.86
2023-01-11T02:26:20.724Z,9.88
2023-01-11T02:27:20.681Z,9.93
2023-01-11T02:28:20.706Z,9.96
2023-01-11T02:29:20.701Z,9.91
2023-01-11T02:30:20.652Z,9.89
2023-01-11T02:31:20.954Z,9.93
2023-01-11T02:32:20.615Z,9.93
2023-01-11T02:33:20.608Z,9.96
2023-01-11T02:34:20.656Z,10.00
2023-01-11T02:35:20.611Z,10.03
2023-01-11T02:36:20.571Z,10.04
2023-01-11T02:37:20.582Z,9.99
2023-01-11T02:38:20.553Z,9.99
2023-01-11T02:39:20.535Z,9.99
2023-01-11T02:40:20.520Z,9.97
2023-01-11T02:41:20.508Z,9.97
2023-01-11T02:42:20.499Z,9.96
2023-01-11T02:43:20.514Z,9.96
2023-01-11T02:44:20.473Z,9.99
2023-01-11T02:45:20.497Z,10.00
2023-01-11T02:46:20.430Z,9.97
2023-01-11T02:47:20.472Z,9.96
2023-01-11T02:48:20.517Z,9.97
2023-01-11T02:49:20.459Z,9.99
2023-01-11T02:50:20.389Z,9.99
2023-01-11T02:51:20.384Z,9.99
2023-01-11T02:52:20.437Z,9.97
2023-01-11T02:53:20.573Z,9.97
2023-01-11T02:54:20.357Z,9.97
2023-01-11T02:55:20.344Z,9.91
2023-01-11T02:56:20.348Z,9.89
2023-01-11T02:57:20.283Z,9.88
2023-01-11T02:58:20.314Z,9.93
2023-01-11T02:59:20.277Z,9.91
2023-01-11T03:00:20.280Z,9.94
2023-01-11T03:01:20.271Z,9.96
2023-01-11T03:02:20.230Z,9.99
2023-01-11T03:03:20.224Z,9.99
2023-01-11T03:04:20.193Z,10.00
2023-01-11T03:05:20.194Z,9.97
2023-01-11T03:06:20.312Z,9.93
2023-01-11T03:07:20.163Z,9.94
2023-01-11T03:08:20.129Z,9.93
2023-01-11T03:09:20.184Z,9.93
2023-01-11T03:10:20.121Z,9.94
2023-01-11T03:11:20.101Z,9.91
2023-01-11T03:12:20.184Z,9.97
2023-01-11T03:13:20.072Z,10.01
2023-01-11T03:14:20.050Z,10.00
2023-01-11T03:15:20.053Z,10.00
2023-01-11T03:16:20.200Z,10.01
2023-01-11T03:17:20.020Z,9.99
2023-01-11T03:18:20.175Z,10.01
2023-01-11T03:19:19.996Z,10.00
2023-01-11T03:20:19.975Z,10.04
2023-01-11T03:21:20.170Z,10.07
2023-01-11T03:22:19.970Z,10.03
2023-01-11T03:23:19.972Z,10.00
2023-01-11T03:24:19.954Z,10.01
2023-01-11T03:25:20.070Z,10.07
2023-01-11T03:26:19.912Z,10.10
2023-01-11T03:27:19.909Z,10.10
2023-01-11T03:28:19.906Z,10.10
2023-01-11T03:29:19.871Z,10.07
2023-01-11T03:30:19.869Z,10.04
2023-01-11T03:31:20.097Z,10.07
2023-01-11T03:32:19.858Z,10.12
2023-01-11T03:33:19.850Z,10.10
2023-01-11T03:34:19.821Z,10.15
2023-01-11T03:35:19.830Z,10.15
2023-01-11T03:36:19.801Z,10.19
2023-01-11T03:37:19.857Z,10.18
2023-01-11T03:38:19.774Z,10.18
2023-01-11T03:39:19.725Z,10.21
2023-01-11T03:40:19.791Z,10.21
2023-01-11T03:41:19.755Z,10.21
2023-01-11T03:42:19.708Z,10.26
2023-01-11T03:43:19.742Z,10.19
2023-01-11T03:44:19.722Z,10.25
2023-01-11T03:45:19.677Z,10.26
2023-01-11T03:46:19.664Z,10.24
2023-01-11T03:47:19.670Z,10.25
2023-01-11T03:48:19.644Z,10.28
2023-01-11T03:49:19.599Z,10.33
2023-01-11T03:50:19.599Z,10.30
2023-01-11T03:51:19.621Z,10.30
2023-01-11T03:52:19.588Z,10.26
2023-01-11T03:53:19.550Z,10.30
2023-01-11T03:54:19.580Z,10.28
2023-01-11T03:55:19.566Z,10.28
2023-01-11T03:56:19.668Z,10.28
2023-01-11T03:57:19.507Z,10.32
2023-01-11T03:58:19.517Z,10.30
2023-01-11T03:59:19.460Z,10.34
2023-01-11T04:00:20.440Z,10.34
2023-01-11T04:01:19.486Z,10.34
2023-01-11T04:02:19.462Z,10.34
2023-01-11T04:03:19.417Z,10.39
2023-01-11T04:04:19.517Z,10.33
2023-01-11T04:05:19.388Z,10.37
2023-01-11T04:06:19.439Z,10.40
2023-01-11T04:07:19.470Z,10.43
2023-01-11T04:08:19.452Z,10.42
2023-01-11T04:09:19.339Z,10.40
2023-01-11T04:10:19.336Z,10.39
2023-01-11T04:11:19.317Z,10.43
2023-01-11T04:12:19.326Z,10.40
2023-01-11T04:13:19.350Z,10.46
2023-01-11T04:14:19.337Z,10.44
2023-01-11T04:15:19.276Z,10.44
2023-01-11T04:16:19.489Z,10.44
2023-01-11T04:17:19.266Z,10.44
2023-01-11T04:18:19.219Z,10.51
2023-01-11T04:19:19.258Z,10.42
2023-01-11T04:20:19.221Z,10.47
2023-01-11T04:21:19.209Z,10.51
2023-01-11T04:22:19.208Z,10.53
2023-01-11T04:23:19.168Z,10.51
2023-01-11T04:24:19.148Z,10.52
2023-01-11T04:25:19.126Z,10.44
2023-01-11T04:26:19.179Z,10.46
2023-01-11T04:27:19.121Z,10.53
2023-01-11T04:28:19.079Z,10.55
2023-01-11T04:29:19.089Z,10.55
2023-01-11T04:30:19.079Z,10.53
2023-01-11T04:31:19.071Z,10.55
2023-01-11T04:32:19.053Z,10.58
2023-01-11T04:33:19.065Z,10.52
2023-01-11T04:34:19.011Z,10.44
2023-01-11T04:35:19.014Z,10.46
2023-01-11T04:36:18.999Z,10.44
2023-01-11T04:37:18.988Z,10.53
2023-01-11T04:38:19.022Z,10.53
2023-01-11T04:39:18.974Z,10.55
2023-01-11T04:40:18.938Z,10.59
2023-01-11T04:41:18.929Z,10.58
2023-01-11T04:42:18.967Z,10.56
2023-01-11T04:43:18.879Z,10.56
2023-01-11T04:44:18.865Z,10.59
2023-01-11T04:45:18.893Z,10.58
2023-01-11T04:46:18.835Z,10.60
2023-01-11T04:47:18.846Z,10.62
2023-01-11T04:48:18.909Z,10.59
2023-01-11T04:49:18.798Z,10.59
2023-01-11T04:50:18.817Z,10.59
2023-01-11T04:51:18.828Z,10.56
2023-01-11T04:52:18.790Z,10.60
2023-01-11T04:53:18.756Z,10.62
2023-01-11T04:54:18.926Z,10.65
2023-01-11T04:55:18.748Z,10.59
2023-01-11T04:56:18.726Z,10.63
2023-01-11T04:57:18.707Z,10.62
2023-01-11T04:58:18.728Z,10.60
2023-01-11T04:59:18.711Z,10.63
2023-01-11T05:00:18.699Z,10.63
2023-01-11T05:01:18.740Z,10.63
2023-01-11T05:02:18.656Z,10.66
2023-01-11T05:03:18.656Z,10.63
2023-01-11T05:04:18.696Z,10.66
2023-01-11T05:05:18.606Z,10.74
2023-01-11T05:06:18.620Z,10.73
2023-01-11T05:07:18.573Z,10.76
2023-01-11T05:08:18.602Z,10.73
2023-01-11T05:09:18.540Z,10.70
2023-01-11T05:10:20.871Z,10.70
2023-01-11T05:11:18.526Z,10.70
2023-01-11T05:12:18.545Z,10.71
2023-01-11T05:13:18.505Z,10.74
2023-01-11T05:14:18.536Z,10.78
2023-01-11T05:15:18.483Z,10.80
2023-01-11T05:16:18.493Z,10.77
2023-01-11T05:17:18.591Z,10.80
2023-01-11T05:18:18.464Z,10.74
2023-01-11T05:19:18.459Z,10.77
2023-01-11T05:20:18.406Z,10.78
2023-01-11T05:21:18.470Z,10.80
2023-01-11T05:22:18.397Z,10.83
2023-01-11T05:23:18.392Z,10.84
2023-01-11T05:24:18.352Z,10.84
2023-01-11T05:25:18.365Z,10.89
2023-01-11T05:26:18.315Z,10.92
2023-01-11T05:27:18.347Z,10.92
2023-01-11T05:28:18.415Z,10.94
2023-01-11T05:29:18.345Z,10.95
2023-01-11T05:30:18.288Z,10.99
2023-01-11T05:31:18.307Z,10.94
2023-01-11T05:32:18.365Z,10.91
2023-01-11T05:33:18.265Z,10.92
2023-01-11T05:34:18.265Z,10.91
2023-01-11T05:35:18.272Z,10.98
2023-01-11T05:36:18.195Z,11.02
2023-01-11T05:37:18.341Z,10.99
2023-01-11T05:38:18.193Z,10.98
2023-01-11T05:39:18.202Z,10.94
2023-01-11T05:40:18.229Z,10.96
2023-01-11T05:41:18.210Z,10.98
2023-01-11T05:42:18.128Z,10.98
2023-01-11T05:43:18.150Z,10.99
2023-01-11T05:44:18.247Z,11.02
2023-01-11T05:45:18.143Z,11.03
2023-01-11T05:46:18.075Z,10.99
2023-01-11T05:47:18.170Z,11.02
2023-01-11T05:48:18.062Z,11.06
2023-01-11T05:49:18.039Z,11.09
2023-01-11T05:50:18.111Z,11.11
2023-01-11T05:51:18.086Z,11.07
2023-01-11T05:52:18.056Z,11.10
2023-01-11T05:53:17.984Z,11.09
2023-01-11T05:54:17.982Z,11.13
2023-01-11T05:55:17.943Z,11.19
2023-01-11T05:56:17.994Z,11.24
2023-01-11T05:57:17.999Z,11.20
2023-01-11T05:58:17.904Z,11.24
2023-01-11T05:59:17.920Z,11.24
2023-01-11T06:00:17.943Z,11.24
2023-01-11T06:01:17.905Z,11.25
2023-01-11T06:02:18.094Z,11.27
2023-01-11T06:03:17.897Z,11.20
2023-01-11T06:04:17.830Z,11.19
2023-01-11T06:05:17.868Z,11.21
2023-01-11T06:06:17.900Z,11.17
2023-01-11T06:07:17.781Z,11.24
2023-01-11T06:08:17.858Z,11.24
2023-01-11T06:09:17.752Z,11.20
2023-01-11T06:10:17.794Z,11.17
2023-01-11T06:11:17.764Z,11.19
2023-01-11T06:12:17.716Z,11.17
2023-01-11T06:13:17.701Z,11.13
2023-01-11T06:14:17.727Z,11.16
2023-01-11T06:15:17.695Z,11.21
2023-01-11T06:16:17.709Z,11.20
2023-01-11T06:17:17.832Z,11.11
2023-01-11T06:18:17.682Z,11.13
2023-01-11T06:19:17.647Z,11.14
2023-01-11T06:20:17.793Z,11.16
2023-01-11T06:21:17.601Z,11.14
2023-01-11T06:22:17.591Z,11.14
2023-01-11T06:23:17.607Z,11.14
2023-01-11T06:24:17.573Z,11.17
2023-01-11T06:25:17.582Z,11.21
2023-01-11T06:26:17.579Z,11.25
2023-01-11T06:27:17.545Z,11.28
2023-01-11T06:28:17.499Z,11.27
2023-01-11T06:29:17.516Z,11.20
2023-01-11T06:30:17.488Z,11.19
2023-01-11T06:31:18.263Z,11.20
2023-01-11T06:32:17.617Z,11.24
2023-01-11T06:33:17.431Z,11.16
2023-01-11T06:34:17.444Z,11.19
2023-01-11T06:35:17.496Z,11.21
2023-01-11T06:36:17.481Z,11.21
2023-01-11T06:37:17.379Z,11.21
2023-01-11T06:38:17.648Z,11.24
2023-01-11T06:39:17.374Z,11.25
2023-01-11T06:40:17.347Z,11.25
2023-01-11T06:41:17.364Z,11.24
2023-01-11T06:42:17.317Z,11.25
2023-01-11T06:43:17.311Z,11.25
2023-01-11T06:44:17.364Z,11.28
2023-01-11T06:45:17.284Z,11.24
2023-01-11T06:46:17.453Z,11.21
2023-01-11T06:47:17.291Z,11.25
2023-01-11T06:48:17.234Z,11.27
2023-01-11T06:49:17.219Z,11.28
2023-01-11T06:50:17.316Z,11.29
2023-01-11T06:51:17.217Z,11.32
2023-01-11T06:52:17.223Z,11.25
2023-01-11T06:53:17.205Z,11.20
2023-01-11T06:54:17.172Z,11.19
2023-01-11T06:55:17.139Z,11.20
2023-01-11T06:56:17.162Z,11.21
2023-01-11T06:57:17.130Z,11.19
2023-01-11T06:58:17.103Z,11.17
2023-01-11T06:59:17.277Z,11.13
2023-01-11T07:00:17.121Z,11.11
2023-01-11T07:01:17.186Z,11.06
2023-01-11T07:02:17.112Z,11.09
2023-01-11T07:03:17.059Z,11.07
2023-01-11T07:04:17.061Z,11.09
2023-01-11T07:05:19.227Z,11.09
2023-01-11T07:06:17.022Z,11.10
2023-01-11T07:07:16.988Z,11.11
2023-01-11T07:08:17.010Z,11.09
2023-01-11T07:09:16.977Z,11.09
2023-01-11T07:10:17.085Z,11.11
2023-01-11T07:11:17.035Z,11.14
2023-01-11T07:12:16.933Z,11.16
2023-01-11T07:13:16.908Z,11.16
2023-01-11T07:14:17.043Z,11.17
2023-01-11T07:15:16.914Z,11.17
2023-01-11T07:16:16.946Z,11.14
2023-01-11T07:17:16.996Z,11.17
2023-01-11T07:18:16.833Z,11.19
2023-01-11T07:19:16.848Z,11.17
2023-01-11T07:20:16.849Z,11.10
2023-01-11T07:21:16.788Z,11.14
2023-01-11T07:22:16.832Z,11.17
2023-01-11T07:23:16.796Z,11.14
2023-01-11T07:24:16.791Z,11.16
2023-01-11T07:25:16.750Z,11.16
2023-01-11T07:26:16.809Z,11.13
2023-01-11T07:27:16.718Z,11.11
2023-01-11T07:28:16.735Z,11.11
2023-01-11T07:29:16.709Z,11.14
2023-01-11T07:30:16.722Z,11.17
2023-01-11T07:31:16.680Z,11.20
2023-01-11T07:32:16.720Z,11.20
2023-01-11T07:33:16.695Z,11.25
2023-01-11T07:34:16.720Z,11.24
2023-01-11T07:35:16.716Z,11.27
2023-01-11T07:36:16.599Z,11.27
2023-01-11T07:37:29.061Z,11.27
2023-01-11T07:38:17.594Z,11.25
2023-01-11T07:39:16.579Z,11.25
2023-01-11T07:40:16.562Z,11.27
2023-01-11T07:41:16.638Z,11.31
2023-01-11T07:42:16.537Z,11.32
2023-01-11T07:43:16.527Z,11.32
2023-01-11T07:44:16.721Z,11.28
2023-01-11T07:45:16.509Z,11.32
2023-01-11T07:46:16.571Z,11.29
2023-01-11T07:47:16.463Z,11.35
2023-01-11T07:48:16.447Z,11.36
2023-01-11T07:49:16.480Z,11.39
2023-01-11T07:50:16.503Z,11.38
2023-01-11T07:51:16.400Z,11.36
2023-01-11T07:52:16.392Z,11.38
2023-01-11T07:53:16.439Z,11.43
2023-01-11T07:54:16.424Z,11.49
2023-01-11T07:55:16.369Z,11.47
2023-01-11T07:56:16.442Z,11.53
2023-01-11T07:57:16.336Z,11.54
2023-01-11T07:58:16.320Z,11.54
2023-01-11T07:59:16.346Z,11.56
2023-01-11T08:00:16.288Z,11.56
2023-01-11T08:01:16.272Z,11.59
2023-01-11T08:02:16.472Z,11.65
2023-01-11T08:03:16.435Z,11.62
2023-01-11T08:04:16.220Z,11.65
2023-01-11T08:05:17.454Z,11.65
2023-01-11T08:06:16.255Z,11.65
2023-01-11T08:07:16.219Z,11.68
2023-01-11T08:08:16.370Z,11.70
2023-01-11T08:09:16.207Z,11.71
2023-01-11T08:10:16.160Z,11.68
2023-01-11T08:11:16.224Z,11.75
2023-01-11T08:12:16.139Z,11.75
2023-01-11T08:13:17.010Z,11.74
2023-01-11T08:14:16.174Z,11.74
2023-01-11T08:15:16.167Z,11.78
2023-01-11T08:16:16.149Z,11.83
2023-01-11T08:17:16.102Z,11.85
2023-01-11T08:18:16.044Z,11.89
2023-01-11T08:19:16.020Z,11.96
2023-01-11T08:21:26.088Z,11.80
2023-01-11T08:22:25.928Z,11.89
2023-01-11T08:23:25.916Z,11.99
2023-01-11T08:24:25.937Z,11.97
2023-01-11T08:25:26.018Z,11.89
2023-01-11T08:26:25.850Z,11.89
2023-01-11T08:27:25.871Z,11.94
2023-01-11T08:28:25.905Z,11.93
2023-01-11T08:29:25.808Z,11.94
2023-01-11T08:30:25.798Z,11.97
2023-01-11T08:31:25.936Z,12.06
2023-01-11T08:32:25.880Z,12.08
2023-01-11T08:33:25.778Z,12.06
2023-01-11T08:34:25.806Z,12.06
2023-01-11T08:35:25.773Z,12.06
2023-01-11T08:36:25.722Z,12.08
2023-01-11T08:37:25.698Z,12.20
2023-01-11T08:38:25.722Z,12.13
2023-01-11T08:39:25.678Z,12.21
2023-01-11T08:40:25.894Z,12.19
2023-01-11T08:41:25.650Z,12.27
2023-01-11T08:42:25.760Z,12.26
2023-01-11T08:43:25.598Z,12.27
2023-01-11T08:44:33.620Z,12.30
2023-01-11T08:45:26.591Z,12.27
2023-01-11T08:46:25.623Z,12.30
2023-01-11T08:47:25.588Z,12.30
2023-01-11T08:48:25.639Z,12.29
2023-01-11T08:49:25.541Z,12.33
2023-01-11T08:50:25.605Z,12.33
2023-01-11T08:51:25.516Z,12.31
2023-01-11T08:52:25.498Z,12.31
2023-01-11T08:53:25.478Z,12.38
2023-01-11T08:54:25.575Z,12.38
2023-01-11T08:55:25.441Z,12.41
2023-01-11T08:56:25.488Z,12.41
2023-01-11T08:57:25.530Z,12.51
2023-01-11T08:58:25.452Z,12.49
2023-01-11T08:59:25.482Z,12.46
2023-01-11T09:00:25.407Z,12.51
2023-01-11T09:01:25.436Z,12.54
2023-01-11T09:02:25.642Z,12.51
2023-01-11T09:03:25.351Z,12.59
2023-01-11T09:04:25.846Z,12.57
2023-01-11T09:05:25.395Z,12.56
2023-01-11T09:06:25.350Z,12.59
2023-01-11T09:07:25.288Z,12.62
2023-01-11T09:08:25.336Z,12.59
2023-01-11T09:09:25.257Z,12.59
2023-01-11T09:10:25.266Z,12.57
2023-01-11T09:11:25.268Z,12.60
2023-01-11T09:12:25.295Z,12.60
2023-01-11T09:13:25.240Z,12.62
2023-01-11T09:14:25.285Z,12.63
2023-01-11T09:15:26.268Z,12.59
2023-01-11T09:16:25.223Z,12.60
2023-01-11T09:17:25.160Z,12.62
2023-01-11T09:18:25.180Z,12.59
2023-01-11T09:19:47.682Z,12.57
2023-01-11T09:20:25.148Z,12.63
2023-01-11T09:21:25.186Z,12.64
2023-01-11T09:22:25.101Z,12.70
2023-01-11T09:23:25.128Z,12.69
2023-01-11T09:24:25.078Z,12.64
2023-01-11T09:25:26.011Z,12.57
2023-01-11T09:26:25.239Z,12.56
2023-01-11T09:27:25.048Z,12.56
2023-01-11T09:28:25.043Z,12.64
2023-01-11T09:29:25.088Z,12.66
2023-01-11T09:30:25.033Z,12.67
2023-01-11T09:31:46.065Z,12.63
2023-01-11T09:32:24.964Z,12.60
2023-01-11T09:33:24.946Z,12.52
2023-01-11T09:34:24.935Z,12.54
2023-01-11T09:35:24.949Z,12.57
2023-01-11T09:36:24.956Z,12.54
2023-01-11T09:37:24.941Z,12.49
2023-01-11T09:38:24.883Z,12.46
2023-01-11T09:39:24.977Z,12.51
2023-01-11T09:40:24.863Z,12.59
2023-01-11T09:41:24.838Z,12.56
2023-01-11T09:42:24.885Z,12.54
2023-01-11T09:43:24.820Z,12.52
2023-01-11T09:44:24.957Z,12.56
2023-01-11T09:45:24.846Z,12.48
2023-01-11T09:46:24.778Z,12.46
2023-01-11T09:47:24.802Z,12.48
2023-01-11T09:48:24.915Z,12.51
2023-01-11T09:49:24.745Z,12.41
2023-01-11T09:50:24.794Z,12.38
2023-01-11T09:51:24.698Z,12.38
2023-01-11T09:52:24.714Z,12.37
2023-01-11T09:53:24.678Z,12.37
2023-01-11T09:54:24.689Z,12.30
2023-01-11T09:55:24.674Z,12.29
2023-01-11T09:56:24.631Z,12.24
2023-01-11T09:57:24.614Z,12.23
2023-01-11T09:58:24.670Z,12.21
2023-01-11T09:59:24.601Z,12.24
2023-01-11T10:00:24.657Z,12.27
2023-01-11T10:01:24.658Z,12.30
2023-01-11T10:02:24.566Z,12.27
2023-01-11T10:03:24.548Z,12.20
2023-01-11T10:04:24.565Z,12.11
2023-01-11T10:05:24.540Z,12.11
2023-01-11T10:06:24.586Z,12.12
2023-01-11T10:07:24.522Z,12.12
2023-01-11T10:18:32.232Z,12.01
2023-01-11T10:18:32.895Z,12.02
2023-01-11T10:18:33.478Z,12.01
2023-01-11T10:18:39.948Z,12.02
2023-01-11T10:18:46.467Z,11.99
2023-01-11T10:19:37.425Z,11.99
2023-01-11T10:20:25.483Z,12.01
2023-01-11T10:21:24.312Z,11.99
2023-01-11T10:22:24.304Z,11.97
2023-01-11T10:23:24.286Z,11.94
2023-01-11T10:24:24.286Z,11.93
2023-01-11T10:25:24.320Z,11.90
2023-01-11T10:26:24.259Z,11.87
2023-01-11T10:27:24.218Z,11.86
2023-01-11T10:28:24.228Z,11.80
2023-01-11T10:29:24.223Z,11.78
2023-01-11T10:30:24.177Z,11.75
2023-01-11T10:31:24.277Z,11.72
2023-01-11T10:32:24.176Z,11.71
2023-01-11T10:33:24.177Z,11.71
2023-01-11T10:34:24.212Z,11.71
2023-01-11T10:35:24.237Z,11.75
2023-01-11T10:36:24.144Z,11.70
2023-01-11T10:37:24.093Z,11.67
2023-01-11T10:38:24.075Z,11.62
2023-01-11T10:39:24.085Z,11.65
2023-01-11T10:40:24.106Z,11.59
2023-01-11T10:41:24.182Z,11.62
2023-01-11T10:42:24.046Z,11.65
2023-01-11T10:43:24.015Z,11.65
2023-01-11T10:44:24.004Z,11.64
2023-01-11T10:45:24.012Z,11.61
2023-01-11T10:46:23.984Z,11.62
2023-01-11T10:47:23.976Z,11.67
2023-01-11T10:48:23.924Z,11.68
2023-01-11T10:49:23.996Z,11.72
2023-01-11T10:50:24.106Z,11.75
2023-01-11T10:51:23.933Z,11.74
2023-01-11T10:52:23.896Z,11.70
2023-01-11T10:53:23.877Z,11.71
2023-01-11T10:54:23.848Z,11.68
2023-01-11T10:55:23.857Z,11.71
2023-01-11T10:56:23.864Z,11.77
2023-01-11T10:57:23.829Z,11.82
2023-01-11T10:58:23.796Z,11.85
2023-01-11T10:59:23.820Z,11.82
2023-01-11T11:00:23.797Z,11.82
2023-01-11T11:01:23.756Z,11.86
2023-01-11T11:02:25.482Z,11.86
2023-01-11T11:03:23.748Z,11.86
2023-01-11T11:04:23.730Z,11.87
2023-01-11T11:05:23.716Z,11.89
2023-01-11T11:06:23.753Z,11.89
2023-01-11T11:07:23.667Z,11.90
2023-01-11T11:08:23.657Z,11.89
2023-01-11T11:09:23.661Z,11.94
2023-01-11T11:10:23.699Z,11.99
2023-01-11T11:11:23.631Z,12.02
2023-01-11T11:12:23.618Z,12.01
2023-01-11T11:13:23.607Z,12.05
2023-01-11T11:14:23.597Z,12.02
2023-01-11T11:15:23.586Z,11.99
2023-01-11T11:16:23.651Z,11.96
2023-01-11T11:17:23.561Z,11.90
2023-01-11T11:18:23.677Z,11.93
2023-01-11T11:19:23.518Z,12.01
2023-01-11T11:20:23.564Z,11.99
2023-01-11T11:21:26.475Z,11.97
2023-01-11T11:22:23.656Z,11.99
2023-01-11T11:23:23.482Z,12.02
2023-01-11T11:25:33.424Z,12.01
2023-01-11T11:26:33.434Z,12.02
2023-01-11T11:27:33.329Z,12.05
2023-01-11T11:28:33.416Z,12.08
2023-01-11T11:29:33.309Z,12.06
2023-01-11T11:30:33.314Z,12.08
2023-01-11T11:31:33.370Z,12.11
2023-01-11T11:32:36.330Z,12.15
2023-01-11T11:33:40.747Z,12.23
2023-01-11T11:34:33.287Z,12.21
2023-01-11T11:35:33.325Z,12.13
2023-01-11T11:36:33.248Z,12.12
2023-01-11T11:37:33.319Z,12.11
2023-01-11T11:38:33.192Z,12.11
2023-01-11T11:39:33.289Z,12.11
2023-01-11T11:40:33.212Z,12.05
2023-01-11T11:41:33.174Z,12.01
2023-01-11T11:42:33.127Z,12.06
2023-01-11T11:43:33.154Z,12.15
2023-01-11T11:44:33.129Z,12.16
2023-01-11T11:45:33.152Z,12.24
2023-01-11T11:46:33.142Z,12.21
2023-01-11T11:47:33.099Z,12.16
2023-01-11T11:48:33.067Z,12.15
2023-01-11T11:49:33.063Z,12.15
2023-01-11T11:50:44.310Z,12.20
2023-01-11T11:51:34.132Z,12.19
2023-01-11T11:52:33.040Z,12.19
2023-01-11T11:53:33.003Z,12.13
2023-01-11T11:54:38.946Z,12.15
2023-01-11T11:55:32.951Z,12.20
2023-01-11T11:56:32.981Z,12.27
2023-01-11T11:57:32.924Z,12.16
2023-01-11T11:58:32.993Z,12.20
2023-01-11T11:59:32.911Z,12.16
2023-01-11T12:00:32.967Z,12.09
2023-01-11T12:01:32.876Z,12.05
2023-01-11T12:02:32.980Z,12.08
2023-01-11T12:03:32.899Z,12.11
2023-01-11T12:04:32.867Z,12.08
2023-01-11T12:05:32.851Z,12.09
2023-01-11T12:06:32.864Z,12.06
2023-01-11T12:07:34.417Z,12.11
2023-01-11T12:08:32.801Z,12.13
2023-01-11T12:09:32.920Z,12.13
2023-01-11T12:10:32.762Z,12.12
2023-01-11T12:11:32.762Z,12.06
2023-01-11T12:12:32.843Z,12.08
2023-01-11T12:13:32.812Z,12.09
2023-01-11T12:14:32.767Z,12.12
2023-01-11T12:15:32.711Z,12.13
2023-01-11T12:16:32.688Z,12.20
2023-01-11T12:17:32.700Z,12.19
2023-01-11T12:18:32.764Z,12.11
2023-01-11T12:19:32.709Z,12.11
2023-01-11T12:20:32.740Z,12.11
2023-01-11T12:21:32.637Z,12.09
2023-01-11T12:22:32.594Z,12.06
2023-01-11T12:23:32.577Z,12.06
2023-01-11T12:24:32.666Z,12.12
2023-01-11T12:25:32.570Z,12.09
2023-01-11T12:26:32.541Z,12.09
2023-01-11T12:27:32.576Z,12.12
2023-01-11T12:28:32.516Z,12.08
2023-01-11T12:29:32.490Z,12.08
2023-01-11T12:30:32.563Z,12.11
2023-01-11T12:31:32.571Z,12.12
2023-01-11T12:32:32.511Z,12.15
2023-01-11T12:33:32.461Z,12.16
2023-01-11T12:34:32.433Z,12.09
2023-01-11T12:35:32.432Z,12.12
2023-01-11T12:36:32.449Z,12.09
2023-01-11T12:37:32.444Z,12.05
2023-01-11T12:38:32.381Z,12.05
2023-01-11T12:39:32.380Z,12.09
2023-01-11T12:40:32.420Z,12.06
2023-01-11T12:41:32.410Z,12.06
2023-01-11T12:42:45.850Z,12.08
2023-01-11T12:43:33.300Z,12.04
2023-01-11T12:44:32.337Z,12.04
2023-01-11T12:45:32.338Z,12.05
2023-01-11T12:46:32.533Z,12.09
2023-01-11T12:47:32.821Z,12.11
2023-01-11T12:48:32.379Z,12.13
2023-01-11T12:49:32.229Z,12.12
2023-01-11T12:50:32.199Z,12.08
2023-01-11T12:51:32.243Z,12.08
2023-01-11T12:52:32.193Z,12.05
2023-01-11T12:53:33.157Z,12.01
2023-01-11T12:54:32.174Z,12.05
2023-01-11T12:55:32.153Z,12.08
2023-01-11T12:56:32.254Z,12.06
2023-01-11T12:57:32.139Z,12.02
2023-01-11T12:58:32.118Z,12.01
2023-01-11T12:59:32.145Z,12.01
2023-01-11T13:00:32.231Z,11.90
2023-01-11T13:01:32.142Z,11.87
2023-01-11T13:02:32.063Z,11.86
2023-01-11T13:03:32.146Z,11.85
2023-01-11T13:04:32.033Z,11.85
2023-01-11T13:05:31.990Z,11.82
2023-01-11T13:06:34.770Z,11.74